Time,TemperatureF,DewpointF,PressureIn,WindDirection,WindDirectionDegrees,WindSpeedMPH,WindSpeedGustMPH,Humidity,HourlyPrecipIn,Conditions,Clouds,dailyrainin,SolarRadiationWatts/m^2,SoftwareType,DateUTC
2013-10-11 00:13:00,55.0,52.0,-100.00,ENE,62,0.0,2.0,91,0.00,,,0.00,0.000000,,2013-10-11 05:13:00,
2013-10-11 00:23:00,55.0,52.0,-100.00,ENE,62,0.0,2.0,91,0.00,,,0.00,0.000000,,2013-10-11 05:23:00,
2013-10-11 00:34:00,55.0,52.0,-100.00,ENE,62,0.0,2.0,91,0.00,,,0.00,0.000000,,2013-10-11 05:34:00,
2013-10-11 00:43:00,55.0,52.0,-100.00,ENE,62,0.0,2.0,91,0.00,,,0.00,0.000000,,2013-10-11 05:43:00,
2013-10-11 01:12:00,53.0,51.0,-100.00,SE,127,0.0,0.0,93,0.00,,,0.00,0.000000,,2013-10-11 06:12:00,
2013-10-11 01:22:00,53.0,51.0,-100.00,SE,127,0.0,0.0,93,0.00,,,0.00,0.000000,,2013-10-11 06:22:00,
2013-10-11 01:32:00,53.0,51.0,-100.00,SE,127,0.0,0.0,93,0.00,,,0.00,0.000000,,2013-10-11 06:32:00,
2013-10-11 01:43:00,53.0,51.0,-100.00,SE,127,0.0,0.0,93,0.00,,,0.00,0.000000,,2013-10-11 06:43:00,
2013-10-11 02:11:00,53.0,52.0,-100.00,East,81,1.0,2.0,96,0.00,,,0.00,0.000000,,2013-10-11 07:11:00,
2013-10-11 02:22:00,53.0,52.0,-100.00,East,81,1.0,2.0,96,0.00,,,0.00,0.000000,,2013-10-11 07:22:00,
2013-10-11 02:32:00,53.0,52.0,-100.00,East,81,1.0,2.0,96,0.00,,,0.00,0.000000,,2013-10-11 07:32:00,
2013-10-11 02:42:00,53.0,52.0,-100.00,East,81,1.0,2.0,96,0.00,,,0.00,0.000000,,2013-10-11 07:42:00,
2013-10-11 03:12:00,52.0,51.0,-100.00,East,80,1.0,2.0,97,0.00,,,0.00,0.000000,,2013-10-11 08:12:00,
2013-10-11 03:22:00,52.0,51.0,-100.00,East,80,1.0,2.0,97,0.00,,,0.00,0.000000,,2013-10-11 08:22:00,
2013-10-11 03:32:00,52.0,51.0,-100.00,East,80,1.0,2.0,97,0.00,,,0.00,0.000000,,2013-10-11 08:32:00,
2013-10-11 03:42:00,52.0,51.0,-100.00,East,80,1.0,2.0,97,0.00,,,0.00,0.000000,,2013-10-11 08:42:00,
2013-10-11 04:12:00,51.0,50.0,-100.00,ESE,108,1.0,2.0,97,0.00,,,0.00,0.000000,,2013-10-11 09:12:00,
2013-10-11 04:22:00,51.0,50.0,-100.00,ESE,108,1.0,2.0,97,0.00,,,0.00,0.000000,,2013-10-11 09:22:00,
2013-10-11 04:33:00,51.0,50.0,-100.00,ESE,108,1.0,2.0,97,0.00,,,0.00,0.000000,,2013-10-11 09:33:00,
2013-10-11 04:43:00,51.0,50.0,-100.00,ESE,108,1.0,2.0,97,0.00,,,0.00,0.000000,,2013-10-11 09:43:00,
2013-10-11 05:12:00,50.0,49.0,-100.00,ESE,112,2.0,2.0,97,0.00,,,0.00,0.000000,,2013-10-11 10:12:00,
2013-10-11 05:23:00,50.0,49.0,-100.00,ESE,112,2.0,2.0,97,0.00,,,0.00,0.000000,,2013-10-11 10:23:00,
2013-10-11 05:32:00,50.0,49.0,-100.00,ESE,112,2.0,2.0,97,0.00,,,0.00,0.000000,,2013-10-11 10:32:00,
2013-10-11 05:42:00,50.0,49.0,-100.00,ESE,112,2.0,2.0,97,0.00,,,0.00,0.000000,,2013-10-11 10:42:00,
2013-10-11 06:12:00,49.0,48.0,-100.00,ESE,105,0.0,2.0,97,0.00,,,0.00,0.000000,,2013-10-11 11:12:00,
2013-10-11 06:22:00,49.0,48.0,-100.00,ESE,105,0.0,2.0,97,0.00,,,0.00,0.000000,,2013-10-11 11:22:00,
2013-10-11 06:33:00,49.0,48.0,-100.00,ESE,105,0.0,2.0,97,0.00,,,0.00,0.000000,,2013-10-11 11:33:00,
2013-10-11 06:42:00,49.0,48.0,-100.00,ESE,105,0.0,2.0,97,0.00,,,0.00,0.000000,,2013-10-11 11:42:00,
2013-10-11 07:11:00,49.0,48.0,-100.00,East,99,2.0,2.0,98,0.00,,,-99.99,0.000000,,2013-10-11 12:11:00,
2013-10-11 07:22:00,49.0,48.0,-100.00,East,99,2.0,2.0,98,0.00,,,-99.99,0.000000,,2013-10-11 12:22:00,
2013-10-11 07:33:00,49.0,48.0,-100.00,East,99,2.0,2.0,98,0.00,,,-99.99,0.000000,,2013-10-11 12:33:00,
2013-10-11 07:42:00,49.0,48.0,-100.00,East,99,2.0,2.0,98,0.00,,,-99.99,0.000000,,2013-10-11 12:42:00,
2013-10-11 08:12:00,49.0,48.0,-100.00,East,98,1.0,2.0,98,0.00,,,-99.99,7.000000,,2013-10-11 13:12:00,
2013-10-11 08:21:00,49.0,48.0,-100.00,East,98,1.0,2.0,98,0.00,,,-99.99,7.000000,,2013-10-11 13:21:00,
2013-10-11 08:32:00,49.0,48.0,-100.00,East,98,1.0,2.0,98,0.00,,,-99.99,7.000000,,2013-10-11 13:32:00,
2013-10-11 08:42:00,49.0,48.0,-100.00,East,98,1.0,2.0,98,0.00,,,-99.99,7.000000,,2013-10-11 13:42:00,
2013-10-11 09:11:00,52.0,51.0,-100.00,ESE,113,1.0,2.0,98,0.00,,,-99.99,21.000000,,2013-10-11 14:11:00,
2013-10-11 09:22:00,52.0,51.0,-100.00,ESE,113,1.0,2.0,98,0.00,,,-99.99,21.000000,,2013-10-11 14:22:00,
2013-10-11 09:32:00,52.0,51.0,-100.00,ESE,113,1.0,2.0,98,0.00,,,-99.99,21.000000,,2013-10-11 14:32:00,
2013-10-11 09:42:00,52.0,51.0,-100.00,ESE,113,1.0,2.0,98,0.00,,,-99.99,21.000000,,2013-10-11 14:42:00,
2013-10-11 10:11:00,59.0,57.0,-100.00,SE,140,1.0,2.0,92,0.00,,,0.00,36.000000,,2013-10-11 15:11:00,
2013-10-11 10:22:00,59.0,57.0,-100.00,SE,140,1.0,2.0,92,0.00,,,0.00,36.000000,,2013-10-11 15:22:00,
2013-10-11 10:33:00,59.0,57.0,-100.00,SE,140,1.0,2.0,92,0.00,,,0.00,36.000000,,2013-10-11 15:33:00,
2013-10-11 10:44:00,59.0,57.0,-100.00,SE,140,1.0,2.0,92,0.00,,,0.00,36.000000,,2013-10-11 15:44:00,
2013-10-11 11:13:00,65.0,56.0,-100.00,SE,129,2.0,3.0,72,0.00,,,0.00,71.000000,,2013-10-11 16:13:00,
2013-10-11 11:22:00,65.0,56.0,-100.00,SE,129,2.0,3.0,72,0.00,,,0.00,71.000000,,2013-10-11 16:22:00,
2013-10-11 11:32:00,65.0,56.0,-100.00,SE,129,2.0,3.0,72,0.00,,,0.00,71.000000,,2013-10-11 16:32:00,
2013-10-11 11:43:00,65.0,56.0,-100.00,SE,129,2.0,3.0,72,0.00,,,0.00,71.000000,,2013-10-11 16:43:00,
2013-10-11 12:12:00,70.0,55.0,-100.00,East,98,2.0,5.0,59,0.00,,,0.00,94.000000,,2013-10-11 17:12:00,
2013-10-11 12:22:00,70.0,55.0,-100.00,East,98,2.0,5.0,59,0.00,,,0.00,94.000000,,2013-10-11 17:22:00,
2013-10-11 12:33:00,70.0,55.0,-100.00,East,98,2.0,5.0,59,0.00,,,0.00,94.000000,,2013-10-11 17:33:00,
2013-10-11 12:43:00,70.0,55.0,-100.00,East,98,2.0,5.0,59,0.00,,,0.00,94.000000,,2013-10-11 17:43:00,
2013-10-11 13:12:00,75.0,54.0,-100.00,East,91,2.0,4.0,48,0.00,,,0.00,440.000000,,2013-10-11 18:12:00,
2013-10-11 13:22:00,75.0,54.0,-100.00,East,91,2.0,4.0,48,0.00,,,0.00,440.000000,,2013-10-11 18:22:00,
2013-10-11 13:32:00,75.0,54.0,-100.00,East,91,2.0,4.0,48,0.00,,,0.00,440.000000,,2013-10-11 18:32:00,
2013-10-11 13:43:00,75.0,54.0,-100.00,East,91,2.0,4.0,48,0.00,,,0.00,440.000000,,2013-10-11 18:43:00,
2013-10-11 14:11:00,77.0,50.0,-100.00,ENE,77,3.0,6.0,39,0.00,,,-99.99,652.000000,,2013-10-11 19:11:00,
2013-10-11 14:22:00,77.0,50.0,-100.00,ENE,77,3.0,6.0,39,0.00,,,-99.99,652.000000,,2013-10-11 19:22:00,
2013-10-11 14:32:00,77.0,50.0,-100.00,ENE,77,3.0,6.0,39,0.00,,,-99.99,652.000000,,2013-10-11 19:32:00,
2013-10-11 14:42:00,77.0,50.0,-100.00,ENE,77,3.0,6.0,39,0.00,,,-99.99,652.000000,,2013-10-11 19:42:00,
2013-10-11 15:12:00,76.0,51.0,-100.00,NNE,12,2.0,5.0,41,0.00,,,0.00,508.000000,,2013-10-11 20:12:00,
2013-10-11 15:22:00,76.0,51.0,-100.00,NNE,12,2.0,5.0,41,0.00,,,0.00,508.000000,,2013-10-11 20:22:00,
2013-10-11 15:32:00,76.0,51.0,-100.00,NNE,12,2.0,5.0,41,0.00,,,0.00,508.000000,,2013-10-11 20:32:00,
2013-10-11 15:43:00,76.0,51.0,-100.00,NNE,12,2.0,5.0,41,0.00,,,0.00,508.000000,,2013-10-11 20:43:00,
2013-10-11 16:12:00,74.0,53.0,-100.00,South,187,2.0,4.0,48,0.00,,,0.00,98.000000,,2013-10-11 21:12:00,
2013-10-11 16:22:00,74.0,53.0,-100.00,South,187,2.0,4.0,48,0.00,,,0.00,98.000000,,2013-10-11 21:22:00,
2013-10-11 16:34:00,74.0,53.0,-100.00,South,187,2.0,4.0,48,0.00,,,0.00,98.000000,,2013-10-11 21:34:00,
2013-10-11 16:43:00,74.0,53.0,-100.00,South,187,2.0,4.0,48,0.00,,,0.00,98.000000,,2013-10-11 21:43:00,
2013-10-11 17:13:00,72.0,52.0,-100.00,ESE,102,1.0,4.0,49,0.00,,,0.00,41.000000,,2013-10-11 22:13:00,
2013-10-11 17:24:00,72.0,52.0,-100.00,ESE,102,1.0,4.0,49,0.00,,,0.00,41.000000,,2013-10-11 22:24:00,
2013-10-11 17:33:00,72.0,52.0,-100.00,ESE,102,1.0,4.0,49,0.00,,,0.00,41.000000,,2013-10-11 22:33:00,
2013-10-11 17:43:00,72.0,52.0,-100.00,ESE,102,1.0,4.0,49,0.00,,,0.00,41.000000,,2013-10-11 22:43:00,
2013-10-11 19:22:00,63.0,55.0,-100.00,ESE,121,0.0,2.0,76,0.00,,,0.00,3.000000,,2013-10-12 00:22:00,
2013-10-11 19:32:00,63.0,55.0,-100.00,ESE,121,0.0,2.0,76,0.00,,,0.00,3.000000,,2013-10-12 00:32:00,
2013-10-11 19:42:00,63.0,55.0,-100.00,ESE,121,0.0,2.0,76,0.00,,,0.00,3.000000,,2013-10-12 00:42:00,
2013-10-11 20:11:00,60.0,55.0,-100.00,SE,133,2.0,2.0,85,0.00,,,0.00,0.000000,,2013-10-12 01:11:00,
2013-10-11 20:22:00,60.0,55.0,-100.00,SE,133,2.0,2.0,85,0.00,,,0.00,0.000000,,2013-10-12 01:22:00,
2013-10-11 20:32:00,60.0,55.0,-100.00,SE,133,2.0,2.0,85,0.00,,,0.00,0.000000,,2013-10-12 01:32:00,
2013-10-11 20:42:00,60.0,55.0,-100.00,SE,133,2.0,2.0,85,0.00,,,0.00,0.000000,,2013-10-12 01:42:00,
2013-10-11 21:12:00,58.0,54.0,-100.00,SE,131,1.0,2.0,88,0.00,,,-99.99,0.000000,,2013-10-12 02:12:00,
2013-10-11 21:23:00,58.0,54.0,-100.00,SE,131,1.0,2.0,88,0.00,,,-99.99,0.000000,,2013-10-12 02:23:00,
2013-10-11 21:33:00,58.0,54.0,-100.00,SE,131,1.0,2.0,88,0.00,,,-99.99,0.000000,,2013-10-12 02:33:00,
2013-10-11 21:42:00,58.0,54.0,-100.00,SE,131,1.0,2.0,88,0.00,,,-99.99,0.000000,,2013-10-12 02:42:00,
2013-10-11 22:12:00,56.0,54.0,-100.00,ESE,116,1.0,2.0,93,0.00,,,0.00,0.000000,,2013-10-12 03:12:00,
2013-10-11 22:23:00,56.0,54.0,-100.00,ESE,116,1.0,2.0,93,0.00,,,0.00,0.000000,,2013-10-12 03:23:00,
2013-10-11 22:34:00,56.0,54.0,-100.00,ESE,116,1.0,2.0,93,0.00,,,0.00,0.000000,,2013-10-12 03:34:00,
2013-10-11 22:44:00,56.0,54.0,-100.00,ESE,116,1.0,2.0,93,0.00,,,0.00,0.000000,,2013-10-12 03:44:00,
2013-10-11 23:14:00,55.0,53.0,-100.00,SE,131,2.0,3.0,92,0.00,,,0.00,0.000000,,2013-10-12 04:14:00,
2013-10-11 23:24:00,55.0,53.0,-100.00,SE,131,2.0,3.0,92,0.00,,,0.00,0.000000,,2013-10-12 04:24:00,
2013-10-11 23:33:00,55.0,53.0,-100.00,SE,131,2.0,3.0,92,0.00,,,0.00,0.000000,,2013-10-12 04:33:00,
2013-10-11 23:44:00,55.0,53.0,-100.00,SE,131,2.0,3.0,92,0.00,,,0.00,0.000000,,2013-10-12 04:44:00,